KSUA/SUA METAR and TAF weather

Enter ICAO airport designator
Station Type Date Time Source
KSUA METAR 2022/06/28 14:47 UTC NOAA

KSUA 281447Z 10008KT 10SM SCT027 RMK AWOS OTS SAW OTS WND ESTD


Station Type Date Time Source
KSUA Decoded METAR 2022/06/28 14:47 UTC NOAA

Stuart, Witham Field Airport, FL, United States (KSUA) 27-10-54N 080-13-16W
Jun 28, 2022 - 10:47 AM EDT / 2022.06.28 1447 UTC
Wind: from the E (100 degrees) at 9 MPH (8 KT):0
Visibility: 10 mile(s):0
Sky conditions: partly cloudy
ob: KSUA 281447Z 10008KT 10SM SCT027 RMK AWOS OTS SAW OTS WND ESTD
cycle: 15

Station Type Date Time Source
KSUA TAF 2022/06/28 12:33 UTC NOAA

TAF KSUA 281130Z 2812/2912 12008KT P6SM VCSH SCT022
FM281600 11010KT P6SM VCTS SCT030CB SCT200
FM281900 11012G18KT P6SM SCT030 SCT250
FM290200 11008KT P6SM SCT025
FM290700 11003KT P6SM VCSH SCT025
AMD NOT SKED

Example: see airport list